sensor_id;sensor_type;location;lat;lon;timestamp;temperature;humidity
19496;DHT22;9888;48.606;9.630;2024-01-11T00:02:05;-8.70;99.90
19496;DHT22;9888;48.606;9.630;2024-01-11T00:04:33;-8.60;99.90
19496;DHT22;9888;48.606;9.630;2024-01-11T00:07:00;-8.60;99.90
19496;DHT22;9888;48.606;9.630;2024-01-11T00:09:28;-8.60;99.90
19496;DHT22;9888;48.606;9.630;2024-01-11T00:11:55;-8.50;99.90
19496;DHT22;9888;48.606;9.630;2024-01-11T00:14:22;-8.50;99.90
19496;DHT22;9888;48.606;9.630;2024-01-11T00:16:49;-8.60;99.90
19496;DHT22;9888;48.606;9.630;2024-01-11T00:19:17;-8.60;99.90
19496;DHT22;9888;48.606;9.630;2024-01-11T00:21:44;-8.70;99.90
19496;DHT22;9888;48.606;9.630;2024-01-11T00:24:12;-8.70;99.90
19496;DHT22;9888;48.606;9.630;2024-01-11T00:26:39;-8.80;99.90
19496;DHT22;9888;48.606;9.630;2024-01-11T00:29:06;-8.80;99.90
19496;DHT22;9888;48.606;9.630;2024-01-11T00:31:33;-8.90;99.90
19496;DHT22;9888;48.606;9.630;2024-01-11T00:34:00;-8.90;99.90
19496;DHT22;9888;48.606;9.630;2024-01-11T00:36:28;-8.90;99.90
19496;DHT22;9888;48.606;9.630;2024-01-11T00:38:55;-8.90;99.90
19496;DHT22;9888;48.606;9.630;2024-01-11T00:41:24;-8.80;99.90
19496;DHT22;9888;48.606;9.630;2024-01-11T00:43:56;-8.70;99.90
19496;DHT22;9888;48.606;9.630;2024-01-11T00:46:23;-8.80;99.90
19496;DHT22;9888;48.606;9.630;2024-01-11T00:48:51;-8.90;99.90
19496;DHT22;9888;48.606;9.630;2024-01-11T00:51:18;-8.90;99.90
19496;DHT22;9888;48.606;9.630;2024-01-11T00:53:45;-8.90;99.90
19496;DHT22;9888;48.606;9.630;2024-01-11T00:56:19;-8.90;99.90
19496;DHT22;9888;48.606;9.630;2024-01-11T00:58:46;-9.00;99.90
19496;DHT22;9888;48.606;9.630;2024-01-11T01:01:14;-9.00;99.90
19496;DHT22;9888;48.606;9.630;2024-01-11T01:03:41;-9.00;99.90
19496;DHT22;9888;48.606;9.630;2024-01-11T01:06:08;-9.00;99.90
19496;DHT22;9888;48.606;9.630;2024-01-11T01:08:35;-9.10;99.90
19496;DHT22;9888;48.606;9.630;2024-01-11T01:11:02;-9.10;99.90
19496;DHT22;9888;48.606;9.630;2024-01-11T01:13:30;-9.20;99.90
19496;DHT22;9888;48.606;9.630;2024-01-11T01:15:57;-9.10;99.90
19496;DHT22;9888;48.606;9.630;2024-01-11T01:18:25;-9.00;99.90
19496;DHT22;9888;48.606;9.630;2024-01-11T01:20:52;-9.00;99.90
19496;DHT22;9888;48.606;9.630;2024-01-11T01:23:24;-9.10;99.90
19496;DHT22;9888;48.606;9.630;2024-01-11T01:25:51;-9.00;99.90
19496;DHT22;9888;48.606;9.630;2024-01-11T01:28:18;-9.00;99.90
19496;DHT22;9888;48.606;9.630;2024-01-11T01:30:46;-9.10;99.90
19496;DHT22;9888;48.606;9.630;2024-01-11T01:33:14;-9.20;99.90
19496;DHT22;9888;48.606;9.630;2024-01-11T01:35:42;-9.20;99.90
19496;DHT22;9888;48.606;9.630;2024-01-11T01:38:09;-9.30;99.90
19496;DHT22;9888;48.606;9.630;2024-01-11T01:40:37;-9.20;99.90
19496;DHT22;9888;48.606;9.630;2024-01-11T01:43:09;-9.20;99.90
19496;DHT22;9888;48.606;9.630;2024-01-11T01:45:37;-9.20;99.90
19496;DHT22;9888;48.606;9.630;2024-01-11T01:48:05;-9.30;99.90
19496;DHT22;9888;48.606;9.630;2024-01-11T01:50:33;-9.30;99.90
19496;DHT22;9888;48.606;9.630;2024-01-11T01:53:02;-9.30;99.90
19496;DHT22;9888;48.606;9.630;2024-01-11T01:55:29;-9.30;99.90
19496;DHT22;9888;48.606;9.630;2024-01-11T01:57:58;-9.30;99.90
19496;DHT22;9888;48.606;9.630;2024-01-11T02:00:27;-9.30;99.90
19496;DHT22;9888;48.606;9.630;2024-01-11T02:02:55;-9.40;99.90
19496;DHT22;9888;48.606;9.630;2024-01-11T02:05:23;-9.30;99.90
19496;DHT22;9888;48.606;9.630;2024-01-11T02:07:51;-9.40;99.90
19496;DHT22;9888;48.606;9.630;2024-01-11T02:10:19;-9.40;99.90
19496;DHT22;9888;48.606;9.630;2024-01-11T02:12:47;-9.40;99.90
19496;DHT22;9888;48.606;9.630;2024-01-11T02:15:15;-9.40;99.90
19496;DHT22;9888;48.606;9.630;2024-01-11T02:17:42;-9.30;99.90
19496;DHT22;9888;48.606;9.630;2024-01-11T02:20:10;-9.30;99.90
19496;DHT22;9888;48.606;9.630;2024-01-11T02:22:40;-9.40;99.90
19496;DHT22;9888;48.606;9.630;2024-01-11T02:25:08;-9.40;99.90
19496;DHT22;9888;48.606;9.630;2024-01-11T02:27:54;-9.30;99.90
19496;DHT22;9888;48.606;9.630;2024-01-11T02:30:21;-9.30;99.90
19496;DHT22;9888;48.606;9.630;2024-01-11T02:32:50;-9.30;99.90
19496;DHT22;9888;48.606;9.630;2024-01-11T02:35:18;-9.30;99.90
19496;DHT22;9888;48.606;9.630;2024-01-11T02:37:46;-9.20;99.90
19496;DHT22;9888;48.606;9.630;2024-01-11T02:40:15;-9.40;99.90
19496;DHT22;9888;48.606;9.630;2024-01-11T02:42:42;-9.40;99.90
19496;DHT22;9888;48.606;9.630;2024-01-11T02:45:12;-9.50;99.90
19496;DHT22;9888;48.606;9.630;2024-01-11T02:47:40;-9.40;99.90
19496;DHT22;9888;48.606;9.630;2024-01-11T02:50:08;-9.40;99.90
19496;DHT22;9888;48.606;9.630;2024-01-11T02:52:36;-9.40;99.90
19496;DHT22;9888;48.606;9.630;2024-01-11T02:55:05;-9.40;99.90
19496;DHT22;9888;48.606;9.630;2024-01-11T02:57:32;-9.30;99.90
19496;DHT22;9888;48.606;9.630;2024-01-11T03:00:00;-9.40;99.90
19496;DHT22;9888;48.606;9.630;2024-01-11T03:02:28;-9.40;99.90
19496;DHT22;9888;48.606;9.630;2024-01-11T03:04:56;-9.40;99.90
19496;DHT22;9888;48.606;9.630;2024-01-11T03:07:23;-9.50;99.90
19496;DHT22;9888;48.606;9.630;2024-01-11T03:09:50;-9.50;99.90
19496;DHT22;9888;48.606;9.630;2024-01-11T03:12:18;-9.50;99.90
19496;DHT22;9888;48.606;9.630;2024-01-11T03:14:45;-9.50;99.90
19496;DHT22;9888;48.606;9.630;2024-01-11T03:17:12;-9.50;99.90
19496;DHT22;9888;48.606;9.630;2024-01-11T03:19:41;-9.50;99.90
19496;DHT22;9888;48.606;9.630;2024-01-11T03:22:11;-9.50;99.90
19496;DHT22;9888;48.606;9.630;2024-01-11T03:24:41;-9.50;99.90
19496;DHT22;9888;48.606;9.630;2024-01-11T03:27:10;-9.60;99.90
19496;DHT22;9888;48.606;9.630;2024-01-11T03:29:38;-9.60;99.90
19496;DHT22;9888;48.606;9.630;2024-01-11T03:32:05;-9.60;99.90
19496;DHT22;9888;48.606;9.630;2024-01-11T03:34:32;-9.60;99.90
19496;DHT22;9888;48.606;9.630;2024-01-11T03:36:59;-9.50;99.90
19496;DHT22;9888;48.606;9.630;2024-01-11T03:39:26;-9.40;99.90
19496;DHT22;9888;48.606;9.630;2024-01-11T03:41:54;-9.40;99.90
19496;DHT22;9888;48.606;9.630;2024-01-11T03:44:21;-9.50;99.90
19496;DHT22;9888;48.606;9.630;2024-01-11T03:46:49;-9.60;99.90
19496;DHT22;9888;48.606;9.630;2024-01-11T03:49:18;-9.60;99.90
19496;DHT22;9888;48.606;9.630;2024-01-11T03:51:46;-9.60;99.90
19496;DHT22;9888;48.606;9.630;2024-01-11T03:54:13;-9.60;99.90
19496;DHT22;9888;48.606;9.630;2024-01-11T03:56:41;-9.70;99.90
19496;DHT22;9888;48.606;9.630;2024-01-11T03:59:10;-9.60;99.90
19496;DHT22;9888;48.606;9.630;2024-01-11T04:01:42;-9.60;99.90
19496;DHT22;9888;48.606;9.630;2024-01-11T04:04:14;-9.60;99.90
19496;DHT22;9888;48.606;9.630;2024-01-11T04:06:41;-9.60;99.90
19496;DHT22;9888;48.606;9.630;2024-01-11T04:09:09;-9.60;99.90
19496;DHT22;9888;48.606;9.630;2024-01-11T04:11:36;-9.60;99.90
19496;DHT22;9888;48.606;9.630;2024-01-11T04:14:03;-9.60;99.90
19496;DHT22;9888;48.606;9.630;2024-01-11T04:16:33;-9.60;99.90
19496;DHT22;9888;48.606;9.630;2024-01-11T04:19:00;-9.50;99.90
19496;DHT22;9888;48.606;9.630;2024-01-11T04:21:29;-9.50;99.90
19496;DHT22;9888;48.606;9.630;2024-01-11T04:23:57;-9.50;99.90
19496;DHT22;9888;48.606;9.630;2024-01-11T04:26:25;-9.60;99.90
19496;DHT22;9888;48.606;9.630;2024-01-11T04:28:52;-9.60;99.90
19496;DHT22;9888;48.606;9.630;2024-01-11T04:31:19;-9.50;99.90
19496;DHT22;9888;48.606;9.630;2024-01-11T04:33:46;-9.40;99.90
19496;DHT22;9888;48.606;9.630;2024-01-11T04:36:14;-9.50;99.90
19496;DHT22;9888;48.606;9.630;2024-01-11T04:38:42;-9.60;99.90
19496;DHT22;9888;48.606;9.630;2024-01-11T04:41:11;-9.60;99.90
19496;DHT22;9888;48.606;9.630;2024-01-11T04:43:40;-9.50;99.90
19496;DHT22;9888;48.606;9.630;2024-01-11T04:46:19;-9.50;99.90
19496;DHT22;9888;48.606;9.630;2024-01-11T04:48:48;-9.50;99.90
19496;DHT22;9888;48.606;9.630;2024-01-11T04:51:17;-9.60;99.90
19496;DHT22;9888;48.606;9.630;2024-01-11T04:53:45;-9.70;99.90
19496;DHT22;9888;48.606;9.630;2024-01-11T04:56:16;-9.70;99.90
19496;DHT22;9888;48.606;9.630;2024-01-11T04:58:52;-9.80;99.90
19496;DHT22;9888;48.606;9.630;2024-01-11T05:01:30;-9.80;99.90
19496;DHT22;9888;48.606;9.630;2024-01-11T05:03:57;-9.80;99.90
19496;DHT22;9888;48.606;9.630;2024-01-11T05:06:25;-9.80;99.90
19496;DHT22;9888;48.606;9.630;2024-01-11T05:08:53;-9.80;99.90
19496;DHT22;9888;48.606;9.630;2024-01-11T05:11:27;-9.80;99.90
19496;DHT22;9888;48.606;9.630;2024-01-11T05:13:54;-9.80;99.90
19496;DHT22;9888;48.606;9.630;2024-01-11T05:16:25;-9.70;99.90
19496;DHT22;9888;48.606;9.630;2024-01-11T05:18:56;-9.70;99.90
19496;DHT22;9888;48.606;9.630;2024-01-11T05:21:25;-9.70;99.90
19496;DHT22;9888;48.606;9.630;2024-01-11T05:23:53;-9.60;99.90
19496;DHT22;9888;48.606;9.630;2024-01-11T05:26:21;-9.60;99.90
19496;DHT22;9888;48.606;9.630;2024-01-11T05:28:48;-9.60;99.90
19496;DHT22;9888;48.606;9.630;2024-01-11T05:31:16;-9.60;99.90
19496;DHT22;9888;48.606;9.630;2024-01-11T05:33:44;-9.60;99.90
19496;DHT22;9888;48.606;9.630;2024-01-11T05:36:12;-9.60;99.90
19496;DHT22;9888;48.606;9.630;2024-01-11T05:38:41;-9.50;99.90
19496;DHT22;9888;48.606;9.630;2024-01-11T05:41:08;-9.50;99.90
19496;DHT22;9888;48.606;9.630;2024-01-11T05:43:38;-9.50;99.90
19496;DHT22;9888;48.606;9.630;2024-01-11T05:46:11;-9.60;99.90
19496;DHT22;9888;48.606;9.630;2024-01-11T05:48:39;-9.50;99.90
19496;DHT22;9888;48.606;9.630;2024-01-11T05:51:10;-9.60;99.90
19496;DHT22;9888;48.606;9.630;2024-01-11T05:53:45;-9.60;99.90
19496;DHT22;9888;48.606;9.630;2024-01-11T05:56:14;-9.60;99.90
19496;DHT22;9888;48.606;9.630;2024-01-11T05:58:41;-9.50;99.90
19496;DHT22;9888;48.606;9.630;2024-01-11T06:01:10;-9.50;99.90
19496;DHT22;9888;48.606;9.630;2024-01-11T06:03:38;-9.50;99.90
19496;DHT22;9888;48.606;9.630;2024-01-11T06:06:07;-9.50;99.90
19496;DHT22;9888;48.606;9.630;2024-01-11T06:08:42;-9.50;99.90
19496;DHT22;9888;48.606;9.630;2024-01-11T06:11:16;-9.60;99.90
19496;DHT22;9888;48.606;9.630;2024-01-11T06:14:08;-9.60;99.90
19496;DHT22;9888;48.606;9.630;2024-01-11T06:16:41;-9.50;99.90
19496;DHT22;9888;48.606;9.630;2024-01-11T06:19:24;-9.50;99.90
19496;DHT22;9888;48.606;9.630;2024-01-11T06:22:13;-9.60;99.90
19496;DHT22;9888;48.606;9.630;2024-01-11T06:24:58;-9.40;99.90
19496;DHT22;9888;48.606;9.630;2024-01-11T06:27:26;-9.50;99.90
19496;DHT22;9888;48.606;9.630;2024-01-11T06:30:05;-9.50;99.90
19496;DHT22;9888;48.606;9.630;2024-01-11T06:32:33;-9.60;99.90
19496;DHT22;9888;48.606;9.630;2024-01-11T06:35:01;-9.60;99.90
19496;DHT22;9888;48.606;9.630;2024-01-11T06:37:29;-9.60;99.90
19496;DHT22;9888;48.606;9.630;2024-01-11T06:39:57;-9.60;99.90
19496;DHT22;9888;48.606;9.630;2024-01-11T06:42:28;-9.60;99.90
19496;DHT22;9888;48.606;9.630;2024-01-11T06:44:55;-9.60;99.90
19496;DHT22;9888;48.606;9.630;2024-01-11T06:47:22;-9.60;99.90
19496;DHT22;9888;48.606;9.630;2024-01-11T06:49:54;-9.50;99.90
19496;DHT22;9888;48.606;9.630;2024-01-11T06:52:26;-9.60;99.90
19496;DHT22;9888;48.606;9.630;2024-01-11T06:54:56;-9.70;99.90
19496;DHT22;9888;48.606;9.630;2024-01-11T06:57:32;-9.70;99.90
19496;DHT22;9888;48.606;9.630;2024-01-11T07:00:00;-9.70;99.90
19496;DHT22;9888;48.606;9.630;2024-01-11T07:02:30;-9.60;99.90
19496;DHT22;9888;48.606;9.630;2024-01-11T07:04:59;-9.60;99.90
19496;DHT22;9888;48.606;9.630;2024-01-11T07:07:27;-9.60;99.90
19496;DHT22;9888;48.606;9.630;2024-01-11T07:09:54;-9.50;99.90
19496;DHT22;9888;48.606;9.630;2024-01-11T07:12:22;-9.50;99.90
19496;DHT22;9888;48.606;9.630;2024-01-11T07:14:49;-9.60;99.90
19496;DHT22;9888;48.606;9.630;2024-01-11T07:20:27;-9.60;99.90
19496;DHT22;9888;48.606;9.630;2024-01-11T07:22:54;-9.60;99.90
19496;DHT22;9888;48.606;9.630;2024-01-11T07:25:21;-9.60;99.90
19496;DHT22;9888;48.606;9.630;2024-01-11T07:27:50;-9.60;99.90
19496;DHT22;9888;48.606;9.630;2024-01-11T07:30:17;-9.50;99.90
19496;DHT22;9888;48.606;9.630;2024-01-11T07:32:47;-9.50;99.90
19496;DHT22;9888;48.606;9.630;2024-01-11T07:35:14;-9.40;99.90
19496;DHT22;9888;48.606;9.630;2024-01-11T07:37:47;-9.40;99.90
19496;DHT22;9888;48.606;9.630;2024-01-11T07:40:16;-9.40;99.90
19496;DHT22;9888;48.606;9.630;2024-01-11T07:42:43;-9.40;99.90
19496;DHT22;9888;48.606;9.630;2024-01-11T07:45:10;-9.30;99.90
19496;DHT22;9888;48.606;9.630;2024-01-11T07:47:40;-9.20;99.90
19496;DHT22;9888;48.606;9.630;2024-01-11T07:50:11;-9.20;99.90
19496;DHT22;9888;48.606;9.630;2024-01-11T07:52:40;-9.10;99.90
19496;DHT22;9888;48.606;9.630;2024-01-11T07:55:12;-9.10;99.90
19496;DHT22;9888;48.606;9.630;2024-01-11T07:57:39;-9.10;99.90
19496;DHT22;9888;48.606;9.630;2024-01-11T08:00:08;-9.00;99.90
19496;DHT22;9888;48.606;9.630;2024-01-11T08:02:35;-9.00;99.90
19496;DHT22;9888;48.606;9.630;2024-01-11T08:05:06;-8.90;99.90
19496;DHT22;9888;48.606;9.630;2024-01-11T08:07:34;-8.80;99.90
19496;DHT22;9888;48.606;9.630;2024-01-11T08:10:01;-8.70;99.90
19496;DHT22;9888;48.606;9.630;2024-01-11T08:12:30;-8.60;99.90
19496;DHT22;9888;48.606;9.630;2024-01-11T08:14:58;-8.50;99.90
19496;DHT22;9888;48.606;9.630;2024-01-11T08:17:28;-8.50;99.90
19496;DHT22;9888;48.606;9.630;2024-01-11T08:19:55;-8.40;99.90
19496;DHT22;9888;48.606;9.630;2024-01-11T08:22:23;-8.30;99.90
19496;DHT22;9888;48.606;9.630;2024-01-11T08:24:51;-8.40;99.90
19496;DHT22;9888;48.606;9.630;2024-01-11T08:27:18;-8.30;99.90
19496;DHT22;9888;48.606;9.630;2024-01-11T08:29:45;-7.90;99.90
19496;DHT22;9888;48.606;9.630;2024-01-11T08:32:14;-7.50;99.90
19496;DHT22;9888;48.606;9.630;2024-01-11T08:34:40;-7.30;99.90
19496;DHT22;9888;48.606;9.630;2024-01-11T08:37:08;-7.40;99.90
19496;DHT22;9888;48.606;9.630;2024-01-11T08:39:35;-7.50;99.90
19496;DHT22;9888;48.606;9.630;2024-01-11T08:42:03;-7.40;99.90
19496;DHT22;9888;48.606;9.630;2024-01-11T08:44:30;-7.10;99.90
19496;DHT22;9888;48.606;9.630;2024-01-11T08:46:58;-6.50;99.90
19496;DHT22;9888;48.606;9.630;2024-01-11T08:49:25;-5.80;99.90
19496;DHT22;9888;48.606;9.630;2024-01-11T08:51:53;-4.70;99.90
19496;DHT22;9888;48.606;9.630;2024-01-11T08:54:21;-3.50;99.90
19496;DHT22;9888;48.606;9.630;2024-01-11T08:56:48;-2.30;99.90
19496;DHT22;9888;48.606;9.630;2024-01-11T08:59:24;-1.30;99.90
19496;DHT22;9888;48.606;9.630;2024-01-11T09:01:53;0.90;99.90
19496;DHT22;9888;48.606;9.630;2024-01-11T09:04:21;3.10;99.90
19496;DHT22;9888;48.606;9.630;2024-01-11T09:06:47;4.80;99.90
19496;DHT22;9888;48.606;9.630;2024-01-11T09:09:14;6.10;99.90
19496;DHT22;9888;48.606;9.630;2024-01-11T09:11:41;7.20;99.90
19496;DHT22;9888;48.606;9.630;2024-01-11T09:14:08;7.10;99.90
19496;DHT22;9888;48.606;9.630;2024-01-11T09:16:39;6.70;99.90
19496;DHT22;9888;48.606;9.630;2024-01-11T09:19:06;7.10;99.90
19496;DHT22;9888;48.606;9.630;2024-01-11T09:21:33;8.10;99.90
19496;DHT22;9888;48.606;9.630;2024-01-11T09:24:02;8.70;99.90
19496;DHT22;9888;48.606;9.630;2024-01-11T09:26:29;8.60;99.90
19496;DHT22;9888;48.606;9.630;2024-01-11T09:28:57;9.40;99.90
19496;DHT22;9888;48.606;9.630;2024-01-11T09:31:24;9.80;99.90
19496;DHT22;9888;48.606;9.630;2024-01-11T09:33:52;10.60;99.90
19496;DHT22;9888;48.606;9.630;2024-01-11T09:36:19;11.00;99.90
19496;DHT22;9888;48.606;9.630;2024-01-11T09:38:45;11.70;99.90
19496;DHT22;9888;48.606;9.630;2024-01-11T09:41:14;11.90;99.90
19496;DHT22;9888;48.606;9.630;2024-01-11T09:43:42;12.70;99.90
19496;DHT22;9888;48.606;9.630;2024-01-11T09:46:10;12.90;99.90
19496;DHT22;9888;48.606;9.630;2024-01-11T09:48:39;12.90;99.90
19496;DHT22;9888;48.606;9.630;2024-01-11T09:51:09;13.20;99.90
19496;DHT22;9888;48.606;9.630;2024-01-11T09:53:41;13.60;99.90
19496;DHT22;9888;48.606;9.630;2024-01-11T09:56:09;13.60;99.90
19496;DHT22;9888;48.606;9.630;2024-01-11T09:58:37;13.60;99.90
19496;DHT22;9888;48.606;9.630;2024-01-11T10:01:10;13.60;99.90
19496;DHT22;9888;48.606;9.630;2024-01-11T10:03:40;13.70;99.90
19496;DHT22;9888;48.606;9.630;2024-01-11T10:06:10;14.00;99.90
19496;DHT22;9888;48.606;9.630;2024-01-11T10:08:38;13.90;99.60
19496;DHT22;9888;48.606;9.630;2024-01-11T10:11:06;13.10;99.80
19496;DHT22;9888;48.606;9.630;2024-01-11T10:13:33;13.40;99.10
19496;DHT22;9888;48.606;9.630;2024-01-11T10:16:10;13.80;99.20
19496;DHT22;9888;48.606;9.630;2024-01-11T10:18:39;14.10;97.50
19496;DHT22;9888;48.606;9.630;2024-01-11T10:21:07;13.90;98.60
19496;DHT22;9888;48.606;9.630;2024-01-11T10:23:36;14.20;98.60
19496;DHT22;9888;48.606;9.630;2024-01-11T10:26:05;14.40;99.20
19496;DHT22;9888;48.606;9.630;2024-01-11T10:28:34;14.40;97.00
19496;DHT22;9888;48.606;9.630;2024-01-11T10:31:04;14.70;97.30
19496;DHT22;9888;48.606;9.630;2024-01-11T10:33:34;14.90;97.10
19496;DHT22;9888;48.606;9.630;2024-01-11T10:36:05;14.80;96.60
19496;DHT22;9888;48.606;9.630;2024-01-11T10:38:39;14.70;96.60
19496;DHT22;9888;48.606;9.630;2024-01-11T10:41:07;15.20;95.60
19496;DHT22;9888;48.606;9.630;2024-01-11T10:43:37;15.30;95.70
19496;DHT22;9888;48.606;9.630;2024-01-11T10:46:05;15.70;95.70
19496;DHT22;9888;48.606;9.630;2024-01-11T10:48:38;15.40;95.70
19496;DHT22;9888;48.606;9.630;2024-01-11T10:51:09;15.80;95.40
19496;DHT22;9888;48.606;9.630;2024-01-11T10:53:44;15.80;97.20
19496;DHT22;9888;48.606;9.630;2024-01-11T10:56:13;16.10;95.10
19496;DHT22;9888;48.606;9.630;2024-01-11T10:58:44;15.90;94.80
19496;DHT22;9888;48.606;9.630;2024-01-11T11:01:12;16.00;94.80
19496;DHT22;9888;48.606;9.630;2024-01-11T11:03:40;15.90;95.10
19496;DHT22;9888;48.606;9.630;2024-01-11T11:06:09;16.00;94.60
19496;DHT22;9888;48.606;9.630;2024-01-11T11:08:37;15.90;93.70
19496;DHT22;9888;48.606;9.630;2024-01-11T11:11:05;15.80;94.10
19496;DHT22;9888;48.606;9.630;2024-01-11T11:13:33;15.20;93.00
19496;DHT22;9888;48.606;9.630;2024-01-11T11:16:04;15.20;93.90
19496;DHT22;9888;48.606;9.630;2024-01-11T11:18:35;15.30;93.20
19496;DHT22;9888;48.606;9.630;2024-01-11T11:21:11;14.30;93.80
19496;DHT22;9888;48.606;9.630;2024-01-11T11:23:38;14.50;94.60
19496;DHT22;9888;48.606;9.630;2024-01-11T11:26:07;15.10;93.50
19496;DHT22;9888;48.606;9.630;2024-01-11T11:28:43;15.60;94.40
19496;DHT22;9888;48.606;9.630;2024-01-11T11:31:14;16.10;93.50
19496;DHT22;9888;48.606;9.630;2024-01-11T11:34:03;15.90;93.30
19496;DHT22;9888;48.606;9.630;2024-01-11T11:36:33;15.60;94.70
19496;DHT22;9888;48.606;9.630;2024-01-11T11:39:02;15.60;94.30
19496;DHT22;9888;48.606;9.630;2024-01-11T11:41:31;15.90;93.90
19496;DHT22;9888;48.606;9.630;2024-01-11T11:44:04;15.90;92.70
19496;DHT22;9888;48.606;9.630;2024-01-11T11:46:32;16.10;93.10
19496;DHT22;9888;48.606;9.630;2024-01-11T11:49:00;16.10;94.30
19496;DHT22;9888;48.606;9.630;2024-01-11T11:51:27;16.00;92.30
19496;DHT22;9888;48.606;9.630;2024-01-11T11:53:56;15.80;93.00
19496;DHT22;9888;48.606;9.630;2024-01-11T11:56:24;15.20;92.30
19496;DHT22;9888;48.606;9.630;2024-01-11T11:58:51;14.90;92.10
19496;DHT22;9888;48.606;9.630;2024-01-11T12:01:21;15.00;93.20
19496;DHT22;9888;48.606;9.630;2024-01-11T12:03:48;14.60;92.10
19496;DHT22;9888;48.606;9.630;2024-01-11T12:06:19;13.90;92.50
19496;DHT22;9888;48.606;9.630;2024-01-11T12:08:47;12.90;92.60
19496;DHT22;9888;48.606;9.630;2024-01-11T12:11:19;12.00;94.20
19496;DHT22;9888;48.606;9.630;2024-01-11T12:13:49;11.50;94.80
19496;DHT22;9888;48.606;9.630;2024-01-11T12:16:16;11.30;94.90
19496;DHT22;9888;48.606;9.630;2024-01-11T12:18:43;10.60;94.30
19496;DHT22;9888;48.606;9.630;2024-01-11T12:21:10;9.60;94.70
19496;DHT22;9888;48.606;9.630;2024-01-11T12:23:38;7.70;95.00
19496;DHT22;9888;48.606;9.630;2024-01-11T12:26:09;6.00;96.60
19496;DHT22;9888;48.606;9.630;2024-01-11T12:28:40;4.60;98.10
19496;DHT22;9888;48.606;9.630;2024-01-11T12:31:07;3.40;99.80
19496;DHT22;9888;48.606;9.630;2024-01-11T12:33:35;2.60;99.90
19496;DHT22;9888;48.606;9.630;2024-01-11T12:36:05;2.20;99.90
19496;DHT22;9888;48.606;9.630;2024-01-11T12:38:35;1.60;99.90
19496;DHT22;9888;48.606;9.630;2024-01-11T12:41:03;1.20;99.90
19496;DHT22;9888;48.606;9.630;2024-01-11T12:43:31;0.90;99.90
19496;DHT22;9888;48.606;9.630;2024-01-11T12:45:58;0.80;99.90
19496;DHT22;9888;48.606;9.630;2024-01-11T12:48:27;0.50;99.90
19496;DHT22;9888;48.606;9.630;2024-01-11T12:50:59;0.30;99.90
19496;DHT22;9888;48.606;9.630;2024-01-11T12:53:27;0.10;99.90
19496;DHT22;9888;48.606;9.630;2024-01-11T12:56:07;0.10;99.90
19496;DHT22;9888;48.606;9.630;2024-01-11T12:58:39;0.40;99.90
19496;DHT22;9888;48.606;9.630;2024-01-11T13:01:07;0.40;99.90
19496;DHT22;9888;48.606;9.630;2024-01-11T13:03:38;0.40;99.90
19496;DHT22;9888;48.606;9.630;2024-01-11T13:06:05;0.00;99.90
19496;DHT22;9888;48.606;9.630;2024-01-11T13:08:33;-0.30;99.90
19496;DHT22;9888;48.606;9.630;2024-01-11T13:11:07;-0.50;99.90
19496;DHT22;9888;48.606;9.630;2024-01-11T13:13:36;-0.60;99.90
19496;DHT22;9888;48.606;9.630;2024-01-11T13:16:03;-0.60;99.90
19496;DHT22;9888;48.606;9.630;2024-01-11T13:18:37;-0.60;99.90
19496;DHT22;9888;48.606;9.630;2024-01-11T13:21:04;-0.60;99.90
19496;DHT22;9888;48.606;9.630;2024-01-11T13:23:33;-0.70;99.90
19496;DHT22;9888;48.606;9.630;2024-01-11T13:26:00;-0.70;99.90
19496;DHT22;9888;48.606;9.630;2024-01-11T13:28:28;-0.80;99.90
19496;DHT22;9888;48.606;9.630;2024-01-11T13:30:57;-0.80;99.90
19496;DHT22;9888;48.606;9.630;2024-01-11T13:33:25;-0.90;99.90
19496;DHT22;9888;48.606;9.630;2024-01-11T13:35:52;-0.90;99.90
19496;DHT22;9888;48.606;9.630;2024-01-11T13:38:19;-1.10;99.90
19496;DHT22;9888;48.606;9.630;2024-01-11T13:40:46;-1.20;99.90
19496;DHT22;9888;48.606;9.630;2024-01-11T13:43:13;-1.20;99.90
19496;DHT22;9888;48.606;9.630;2024-01-11T13:45:41;-1.20;99.90
19496;DHT22;9888;48.606;9.630;2024-01-11T13:48:10;-1.30;99.90
19496;DHT22;9888;48.606;9.630;2024-01-11T13:50:37;-1.40;99.90
19496;DHT22;9888;48.606;9.630;2024-01-11T13:53:04;-1.40;99.90
19496;DHT22;9888;48.606;9.630;2024-01-11T13:55:31;-1.40;99.90
19496;DHT22;9888;48.606;9.630;2024-01-11T13:58:04;-1.40;99.90
19496;DHT22;9888;48.606;9.630;2024-01-11T14:00:31;-1.40;99.90
19496;DHT22;9888;48.606;9.630;2024-01-11T14:02:58;-1.30;99.90
19496;DHT22;9888;48.606;9.630;2024-01-11T14:05:25;-1.40;99.90
19496;DHT22;9888;48.606;9.630;2024-01-11T14:08:02;-1.50;99.90
19496;DHT22;9888;48.606;9.630;2024-01-11T14:10:32;-1.50;99.90
19496;DHT22;9888;48.606;9.630;2024-01-11T14:13:00;-1.60;99.90
19496;DHT22;9888;48.606;9.630;2024-01-11T14:15:28;-1.60;99.90
19496;DHT22;9888;48.606;9.630;2024-01-11T14:17:56;-1.70;99.90
19496;DHT22;9888;48.606;9.630;2024-01-11T14:20:23;-1.80;99.90
19496;DHT22;9888;48.606;9.630;2024-01-11T14:22:50;-1.80;99.90
19496;DHT22;9888;48.606;9.630;2024-01-11T14:25:22;-2.00;99.90
19496;DHT22;9888;48.606;9.630;2024-01-11T14:27:53;-2.00;99.90
19496;DHT22;9888;48.606;9.630;2024-01-11T14:30:21;-2.00;99.90
19496;DHT22;9888;48.606;9.630;2024-01-11T14:32:52;-2.00;99.90
19496;DHT22;9888;48.606;9.630;2024-01-11T14:35:19;-2.00;99.90
19496;DHT22;9888;48.606;9.630;2024-01-11T14:37:47;-1.90;99.90
19496;DHT22;9888;48.606;9.630;2024-01-11T14:40:14;-2.00;99.90
19496;DHT22;9888;48.606;9.630;2024-01-11T14:42:42;-2.00;99.90
19496;DHT22;9888;48.606;9.630;2024-01-11T14:45:09;-2.00;99.90
19496;DHT22;9888;48.606;9.630;2024-01-11T14:47:37;-2.00;99.90
19496;DHT22;9888;48.606;9.630;2024-01-11T14:50:05;-2.00;99.90
19496;DHT22;9888;48.606;9.630;2024-01-11T14:52:36;-2.10;99.90
19496;DHT22;9888;48.606;9.630;2024-01-11T14:55:06;-2.20;99.90
19496;DHT22;9888;48.606;9.630;2024-01-11T14:57:33;-2.20;99.90
19496;DHT22;9888;48.606;9.630;2024-01-11T15:00:00;-2.30;99.90
19496;DHT22;9888;48.606;9.630;2024-01-11T15:02:27;-2.30;99.90
19496;DHT22;9888;48.606;9.630;2024-01-11T15:04:54;-2.40;99.90
19496;DHT22;9888;48.606;9.630;2024-01-11T15:07:22;-2.50;99.90
19496;DHT22;9888;48.606;9.630;2024-01-11T15:09:49;-2.60;99.90
19496;DHT22;9888;48.606;9.630;2024-01-11T15:12:18;-2.80;99.90
19496;DHT22;9888;48.606;9.630;2024-01-11T15:14:48;-2.90;99.90
19496;DHT22;9888;48.606;9.630;2024-01-11T15:17:18;-2.90;99.90
19496;DHT22;9888;48.606;9.630;2024-01-11T15:19:45;-3.00;99.90
19496;DHT22;9888;48.606;9.630;2024-01-11T15:22:14;-3.10;99.90
19496;DHT22;9888;48.606;9.630;2024-01-11T15:24:42;-3.10;99.90
19496;DHT22;9888;48.606;9.630;2024-01-11T15:27:10;-3.30;99.90
19496;DHT22;9888;48.606;9.630;2024-01-11T15:29:37;-3.50;99.90
19496;DHT22;9888;48.606;9.630;2024-01-11T15:32:07;-3.70;99.90
19496;DHT22;9888;48.606;9.630;2024-01-11T15:34:37;-3.70;99.90
19496;DHT22;9888;48.606;9.630;2024-01-11T15:37:04;-3.80;99.90
19496;DHT22;9888;48.606;9.630;2024-01-11T15:39:33;-4.00;99.90
19496;DHT22;9888;48.606;9.630;2024-01-11T15:42:01;-4.20;99.90
19496;DHT22;9888;48.606;9.630;2024-01-11T15:44:33;-4.40;99.90
19496;DHT22;9888;48.606;9.630;2024-01-11T15:47:01;-4.50;99.90
19496;DHT22;9888;48.606;9.630;2024-01-11T15:49:28;-4.60;99.90
19496;DHT22;9888;48.606;9.630;2024-01-11T15:51:55;-4.80;99.90
19496;DHT22;9888;48.606;9.630;2024-01-11T15:54:23;-4.90;99.90
19496;DHT22;9888;48.606;9.630;2024-01-11T15:56:50;-5.00;99.90
19496;DHT22;9888;48.606;9.630;2024-01-11T15:59:17;-5.10;99.90
19496;DHT22;9888;48.606;9.630;2024-01-11T16:01:45;-5.10;99.90